Time;durP1;ratioP1;P1;durP2;ratioP2;P2;SDS_P1;SDS_P2;PMS_P1;PMS_P2;Temp;Humidity;BMP_temperature;BMP_pressure;BME280_temperature;BME280_humidity;BME280_pressure;Samples;Min_cycle;Max_cycle;Signal;HPM_P1;HPM_P2
2021/07/16 00:00:21;;;;;;;;;;;22.80;71.40;;;;;;5195924;28;19925;-62
2021/07/16 00:02:53;;;;;;;;;;;22.80;71.40;;;;;;5177930;28;19952;-61
2021/07/16 00:05:25;;;;;;;;;;;22.80;71.40;;;;;;5189652;28;20296;-62
2021/07/16 00:07:57;;;;;;;;;;;22.80;71.40;;;;;;5194318;28;19928;-61
2021/07/16 00:10:31;;;;;;;;;;;22.80;71.40;;;;;;5175715;28;19965;-62
2021/07/16 00:13:03;;;;;;;;;;;22.80;71.40;;;;;;5189298;28;20377;-60
2021/07/16 00:15:35;;;;;;;;;;;22.80;71.40;;;;;;5193089;28;19997;-62
2021/07/16 00:18:07;;;;;;;;;;;22.80;71.30;;;;;;5209873;28;20396;-60
2021/07/16 00:20:41;;;;;;;;;;;22.80;71.40;;;;;;5190623;28;19932;-62
2021/07/16 00:23:13;;;;;;;;;;;22.80;71.40;;;;;;5175175;28;19952;-61
2021/07/16 00:25:46;;;;;;;;;;;22.80;71.30;;;;;;5197854;28;19929;-62
2021/07/16 00:28:18;;;;;;;;;;;22.70;71.30;;;;;;5189367;28;19929;-59
2021/07/16 00:30:50;;;;;;;;;;;22.80;71.40;;;;;;5187323;28;19935;-62
2021/07/16 00:33:23;;;;;;;;;;;22.80;71.30;;;;;;5177669;28;19928;-62
2021/07/16 00:35:55;;;;;;;;;;;22.80;71.20;;;;;;5189278;28;19928;-61
2021/07/16 00:38:32;;;;;;;;;;;22.70;71.20;;;;;;5193611;28;19935;-62
2021/07/16 00:41:05;;;;;;;;;;;22.70;71.20;;;;;;5176984;28;19935;-62
2021/07/16 00:43:37;;;;;;;;;;;22.70;71.20;;;;;;5190802;28;19924;-62
2021/07/16 00:46:09;;;;;;;;;;;22.70;71.80;;;;;;5191108;28;19928;-62
2021/07/16 00:48:41;;;;;;;;;;;22.70;71.10;;;;;;5197737;28;19929;-61
2021/07/16 00:51:14;;;;;;;;;;;22.70;71.10;;;;;;5192366;28;19929;-62
2021/07/16 00:53:46;;;;;;;;;;;22.70;71.10;;;;;;5190662;28;19936;-63
2021/07/16 00:56:18;;;;;;;;;;;22.70;71.00;;;;;;5190675;28;19930;-63
2021/07/16 00:58:51;;;;;;;;;;;22.70;71.10;;;;;;5202098;28;19932;-63
2021/07/16 01:01:23;;;;;;;;;;;22.70;71.00;;;;;;5197675;28;19925;-63
2021/07/16 01:03:55;;;;;;;;;;;22.70;71.00;;;;;;5198538;28;19932;-61
2021/07/16 01:06:28;;;;;;;;;;;22.70;71.00;;;;;;5198050;28;20411;-62
2021/07/16 01:09:00;;;;;;;;;;;22.70;70.90;;;;;;5194259;28;19928;-62
2021/07/16 01:11:33;;;;;;;;;;;22.70;71.00;;;;;;5198075;28;19925;-62
2021/07/16 01:14:05;;;;;;;;;;;22.70;70.90;;;;;;5181441;28;19932;-61
2021/07/16 01:16:37;;;;;;;;;;;22.70;70.90;;;;;;5201884;28;19925;-62
2021/07/16 01:19:11;;;;;;;;;;;22.70;71.00;;;;;;5196882;28;19929;-60
2021/07/16 01:21:46;;;;;;;;;;;22.70;71.10;;;;;;5198818;28;19932;-62
2021/07/16 01:24:18;;;;;;;;;;;22.70;71.00;;;;;;5184215;28;19928;-60
2021/07/16 01:26:51;;;;;;;;;;;22.60;70.90;;;;;;5193750;28;19925;-62
2021/07/16 01:29:23;;;;;;;;;;;22.70;71.10;;;;;;5195033;28;19995;-62
2021/07/16 01:31:55;;;;;;;;;;;22.70;71.00;;;;;;5194848;28;19936;-60
2021/07/16 01:34:28;;;;;;;;;;;22.60;71.00;;;;;;5192531;28;19928;-62
2021/07/16 01:37:00;;;;;;;;;;;22.60;71.00;;;;;;5197401;28;20315;-61
2021/07/16 01:39:33;;;;;;;;;;;22.70;71.00;;;;;;5190840;28;19924;-63
2021/07/16 01:42:06;;;;;;;;;;;22.60;71.00;;;;;;5195345;28;19936;-61
2021/07/16 01:44:40;;;;;;;;;;;22.60;70.90;;;;;;5195424;28;19924;-62
2021/07/16 01:47:13;;;;;;;;;;;22.60;70.90;;;;;;5194448;28;20026;-62
2021/07/16 01:49:45;;;;;;;;;;;22.60;70.90;;;;;;5193685;28;20340;-62
2021/07/16 01:52:17;;;;;;;;;;;22.60;70.80;;;;;;5195384;28;20848;-62
2021/07/16 01:54:49;;;;;;;;;;;22.60;70.80;;;;;;5186732;28;19921;-62
2021/07/16 01:57:21;;;;;;;;;;;22.70;70.90;;;;;;5195569;28;19936;-61
2021/07/16 01:59:54;;;;;;;;;;;22.70;70.90;;;;;;5197227;28;19925;-62
2021/07/16 02:02:26;;;;;;;;;;;22.60;70.80;;;;;;5189057;28;20411;-62
2021/07/16 02:04:58;;;;;;;;;;;22.60;70.80;;;;;;5194175;28;19929;-62
2021/07/16 02:07:30;;;;;;;;;;;22.60;70.70;;;;;;5199857;28;19925;-61
2021/07/16 02:10:03;;;;;;;;;;;22.60;70.70;;;;;;5200864;28;19929;-61
2021/07/16 02:12:35;;;;;;;;;;;22.60;70.70;;;;;;5198343;28;20304;-62
2021/07/16 02:15:12;;;;;;;;;;;22.60;70.60;;;;;;5194115;28;20400;-61
2021/07/16 02:17:45;;;;;;;;;;;22.60;70.70;;;;;;5198360;28;19925;-61
2021/07/16 02:20:18;;;;;;;;;;;22.60;70.50;;;;;;5196954;28;19924;-62
2021/07/16 02:22:54;;;;;;;;;;;22.60;70.60;;;;;;5195597;28;19925;-61
2021/07/16 02:25:27;;;;;;;;;;;22.60;70.60;;;;;;5197436;28;19925;-61
2021/07/16 02:28:10;;;;;;;;;;;22.60;70.70;;;;;;5201396;28;19924;-61
2021/07/16 02:30:43;;;;;;;;;;;22.60;70.70;;;;;;5198378;28;19936;-61
2021/07/16 02:33:15;;;;;;;;;;;22.60;70.60;;;;;;5169889;28;20451;-60
2021/07/16 02:35:47;;;;;;;;;;;22.60;70.60;;;;;;5198763;28;19924;-61
2021/07/16 02:38:22;;;;;;;;;;;22.60;70.50;;;;;;5196969;28;19924;-60
2021/07/16 02:40:54;;;;;;;;;;;22.60;70.50;;;;;;5194486;28;19929;-61
2021/07/16 02:43:27;;;;;;;;;;;22.60;71.20;;;;;;5197502;28;19924;-61
2021/07/16 02:45:59;;;;;;;;;;;22.50;70.40;;;;;;5195385;28;19936;-61
2021/07/16 02:48:31;;;;;;;;;;;22.50;70.50;;;;;;5198607;28;19924;-62
2021/07/16 02:51:04;;;;;;;;;;;22.50;70.40;;;;;;5196249;28;19928;-61
2021/07/16 02:53:37;;;;;;;;;;;22.60;70.50;;;;;;5200887;28;20496;-62
2021/07/16 02:56:09;;;;;;;;;;;22.50;70.50;;;;;;5195059;28;19940;-62
2021/07/16 02:58:41;;;;;;;;;;;22.60;70.50;;;;;;5197618;28;19928;-62
2021/07/16 03:01:13;;;;;;;;;;;22.60;70.60;;;;;;5196397;28;19924;-62
2021/07/16 03:03:45;;;;;;;;;;;22.50;70.40;;;;;;5196586;28;19925;-62
2021/07/16 03:06:18;;;;;;;;;;;22.50;70.50;;;;;;5193843;28;19940;-63
2021/07/16 03:08:50;;;;;;;;;;;22.50;70.60;;;;;;5208760;28;19929;-61
2021/07/16 03:11:22;;;;;;;;;;;22.50;70.60;;;;;;5196112;28;19932;-62
2021/07/16 03:13:54;;;;;;;;;;;22.50;70.50;;;;;;5195033;28;19925;-61
2021/07/16 03:16:26;;;;;;;;;;;22.50;70.60;;;;;;5198399;28;20436;-61
2021/07/16 03:18:59;;;;;;;;;;;22.50;70.50;;;;;;5199244;28;20001;-61
2021/07/16 03:21:33;;;;;;;;;;;22.50;70.60;;;;;;5195565;28;19921;-61
2021/07/16 03:24:05;;;;;;;;;;;22.50;70.60;;;;;;5193555;28;19924;-61
2021/07/16 03:26:38;;;;;;;;;;;22.50;70.60;;;;;;5192435;28;19932;-62
2021/07/16 03:29:10;;;;;;;;;;;22.50;70.50;;;;;;5194633;28;19921;-62
2021/07/16 03:31:42;;;;;;;;;;;22.50;70.50;;;;;;5189021;28;19924;-62
2021/07/16 03:34:15;;;;;;;;;;;22.50;70.60;;;;;;5191548;28;19925;-61
2021/07/16 03:36:47;;;;;;;;;;;22.50;71.10;;;;;;5188445;28;19924;-62
2021/07/16 03:39:19;;;;;;;;;;;22.50;70.50;;;;;;5176766;28;20381;-61
2021/07/16 03:41:51;;;;;;;;;;;22.50;70.40;;;;;;5196073;28;19925;-62
2021/07/16 03:44:24;;;;;;;;;;;22.50;70.60;;;;;;5196165;28;19921;-61
2021/07/16 03:47:14;;;;;;;;;;;22.50;70.50;;;;;;5197577;28;20308;-63
2021/07/16 03:49:46;;;;;;;;;;;22.50;70.50;;;;;;5193519;28;19925;-62
2021/07/16 03:52:18;;;;;;;;;;;22.40;70.50;;;;;;5188435;28;20004;-62
2021/07/16 03:54:51;;;;;;;;;;;22.50;70.60;;;;;;5199119;28;20340;-62
2021/07/16 03:57:23;;;;;;;;;;;22.50;70.60;;;;;;5188261;28;19948;-62
2021/07/16 03:59:56;;;;;;;;;;;22.50;70.70;;;;;;5199690;28;19928;-62
2021/07/16 04:02:29;;;;;;;;;;;22.50;70.70;;;;;;5194905;28;20590;-61
2021/07/16 04:05:01;;;;;;;;;;;22.50;70.70;;;;;;5200179;28;19944;-61
2021/07/16 04:07:35;;;;;;;;;;;22.50;70.60;;;;;;5195503;28;19949;-62
2021/07/16 04:10:08;;;;;;;;;;;22.40;70.60;;;;;;5193762;28;19937;-61
2021/07/16 04:12:40;;;;;;;;;;;22.50;70.80;;;;;;5190597;28;19967;-62
2021/07/16 04:15:13;;;;;;;;;;;22.50;70.90;;;;;;5189115;28;19943;-61
2021/07/16 04:17:46;;;;;;;;;;;22.40;71.00;;;;;;5188015;28;20726;-62
2021/07/16 04:20:18;;;;;;;;;;;22.40;71.00;;;;;;5185032;28;19924;-62
2021/07/16 04:22:50;;;;;;;;;;;22.40;71.10;;;;;;5175233;28;20310;-62
2021/07/16 04:25:23;;;;;;;;;;;22.40;71.10;;;;;;5192478;28;19921;-62
2021/07/16 04:28:00;;;;;;;;;;;22.40;71.10;;;;;;5192241;28;20502;-62
2021/07/16 04:30:33;;;;;;;;;;;22.50;71.20;;;;;;5187206;28;19931;-60
2021/07/16 04:33:06;;;;;;;;;;;22.50;71.20;;;;;;5187299;28;19936;-62
2021/07/16 04:35:39;;;;;;;;;;;22.50;71.20;;;;;;5196240;28;19936;-60
2021/07/16 04:38:11;;;;;;;;;;;22.50;71.30;;;;;;5199458;28;19925;-60
2021/07/16 04:40:44;;;;;;;;;;;22.50;71.40;;;;;;5196023;28;19929;-61
2021/07/16 04:43:16;;;;;;;;;;;22.50;71.30;;;;;;5193594;28;19928;-61
2021/07/16 04:45:48;;;;;;;;;;;22.50;71.30;;;;;;5189057;28;19927;-61
2021/07/16 04:48:20;;;;;;;;;;;22.50;71.30;;;;;;5185578;28;19928;-61
2021/07/16 04:50:53;;;;;;;;;;;22.50;71.30;;;;;;5194662;28;19936;-62
2021/07/16 04:53:25;;;;;;;;;;;22.50;71.40;;;;;;5191308;28;19932;-61
2021/07/16 04:55:57;;;;;;;;;;;22.50;71.40;;;;;;5189804;28;19929;-60
2021/07/16 04:58:29;;;;;;;;;;;22.50;71.30;;;;;;5192393;28;20323;-61
2021/07/16 05:01:01;;;;;;;;;;;22.50;71.40;;;;;;5186165;28;19925;-61
2021/07/16 05:03:34;;;;;;;;;;;22.50;71.40;;;;;;5190384;28;19928;-60
2021/07/16 05:06:06;;;;;;;;;;;22.50;71.40;;;;;;5187785;28;19935;-59
2021/07/16 05:08:39;;;;;;;;;;;22.50;70.50;;;;;;5184025;28;20400;-60
2021/07/16 05:11:12;;;;;;;;;;;22.40;70.40;;;;;;5178982;28;20526;-61
2021/07/16 05:13:44;;;;;;;;;;;22.30;70.60;;;;;;5185774;28;19928;-62
2021/07/16 05:16:17;;;;;;;;;;;22.30;70.70;;;;;;5185687;28;19925;-62
2021/07/16 05:18:49;;;;;;;;;;;22.30;70.70;;;;;;5194413;28;20430;-60
2021/07/16 05:21:22;;;;;;;;;;;22.20;70.70;;;;;;5188036;28;19928;-61
2021/07/16 05:23:54;;;;;;;;;;;22.20;70.80;;;;;;5179095;28;19928;-59
2021/07/16 05:26:26;;;;;;;;;;;22.10;70.70;;;;;;5175970;28;19924;-61
2021/07/16 05:28:59;;;;;;;;;;;22.10;71.00;;;;;;5186107;28;19936;-61
2021/07/16 05:31:31;;;;;;;;;;;22.10;71.10;;;;;;5180766;28;19952;-61
2021/07/16 05:34:03;;;;;;;;;;;22.00;71.10;;;;;;5175488;28;19929;-59
2021/07/16 05:36:35;;;;;;;;;;;22.00;71.40;;;;;;5185252;28;19960;-60
2021/07/16 05:39:08;;;;;;;;;;;22.00;71.50;;;;;;5159525;28;19924;-60
2021/07/16 05:41:40;;;;;;;;;;;21.90;71.60;;;;;;5184788;28;20304;-61
2021/07/16 05:44:13;;;;;;;;;;;22.00;71.60;;;;;;5193229;28;19939;-61
2021/07/16 05:46:45;;;;;;;;;;;22.00;71.80;;;;;;5183796;28;20345;-60
2021/07/16 05:49:18;;;;;;;;;;;21.90;71.70;;;;;;5180465;28;19929;-60
2021/07/16 05:51:50;;;;;;;;;;;21.90;71.90;;;;;;5181528;28;19929;-61
2021/07/16 05:54:23;;;;;;;;;;;22.00;72.30;;;;;;5183654;28;19951;-60
2021/07/16 05:56:55;;;;;;;;;;;22.00;72.00;;;;;;5179308;28;19939;-61
2021/07/16 05:59:27;;;;;;;;;;;22.00;71.90;;;;;;5193055;28;19928;-61
2021/07/16 06:02:01;;;;;;;;;;;22.00;71.80;;;;;;5193518;28;19924;-61
2021/07/16 06:04:34;;;;;;;;;;;22.00;71.90;;;;;;5195284;28;20518;-60
2021/07/16 06:07:07;;;;;;;;;;;22.00;71.90;;;;;;5193833;28;19935;-59
2021/07/16 06:09:39;;;;;;;;;;;21.90;71.80;;;;;;5179247;28;19932;-61
2021/07/16 06:12:11;;;;;;;;;;;21.90;71.90;;;;;;5191176;28;19943;-61
2021/07/16 06:14:44;;;;;;;;;;;21.90;72.10;;;;;;5188509;28;20008;-60
2021/07/16 06:17:16;;;;;;;;;;;21.90;71.90;;;;;;5185873;28;20389;-62
2021/07/16 06:19:48;;;;;;;;;;;21.80;72.10;;;;;;5185180;28;19924;-60
2021/07/16 06:22:20;;;;;;;;;;;21.80;72.10;;;;;;5184572;28;19947;-60
2021/07/16 06:24:53;;;;;;;;;;;21.80;72.00;;;;;;5188891;28;19928;-60
2021/07/16 06:27:25;;;;;;;;;;;21.90;72.20;;;;;;5182776;28;20471;-61
2021/07/16 06:29:57;;;;;;;;;;;21.90;72.30;;;;;;5176755;28;19936;-61
2021/07/16 06:32:30;;;;;;;;;;;21.90;72.40;;;;;;5178133;28;19929;-61
2021/07/16 06:35:03;;;;;;;;;;;21.90;72.40;;;;;;5184035;28;20264;-62
2021/07/16 06:37:35;;;;;;;;;;;21.90;72.20;;;;;;5185424;28;19924;-61
2021/07/16 06:40:08;;;;;;;;;;;21.90;72.50;;;;;;5166610;28;25118;-60
2021/07/16 06:42:40;;;;;;;;;;;21.80;72.80;;;;;;5185714;28;20861;-60
2021/07/16 06:45:13;;;;;;;;;;;21.80;72.80;;;;;;5188642;28;20489;-61
2021/07/16 06:47:45;;;;;;;;;;;21.80;72.70;;;;;;5189342;28;25631;-59
2021/07/16 06:50:17;;;;;;;;;;;21.70;72.70;;;;;;5185106;28;19932;-61
2021/07/16 06:52:49;;;;;;;;;;;21.70;72.90;;;;;;5185598;28;19925;-60
2021/07/16 06:55:21;;;;;;;;;;;21.70;73.20;;;;;;5184158;28;19928;-61
2021/07/16 06:57:54;;;;;;;;;;;21.70;73.20;;;;;;5185637;28;20290;-61
2021/07/16 07:00:26;;;;;;;;;;;21.70;73.20;;;;;;5188365;28;19929;-60
2021/07/16 07:02:58;;;;;;;;;;;21.70;73.20;;;;;;5191515;28;19924;-61
2021/07/16 07:05:31;;;;;;;;;;;21.80;73.10;;;;;;5186083;28;19936;-60
2021/07/16 07:08:03;;;;;;;;;;;21.80;73.10;;;;;;5195270;28;19925;-60
2021/07/16 07:10:35;;;;;;;;;;;21.90;72.90;;;;;;5193234;28;19924;-60
2021/07/16 07:13:08;;;;;;;;;;;21.90;72.80;;;;;;5185305;28;20538;-61
2021/07/16 07:15:40;;;;;;;;;;;21.90;72.70;;;;;;5190030;28;21684;-59
2021/07/16 07:18:13;;;;;;;;;;;22.00;72.80;;;;;;5192014;28;19921;-61
2021/07/16 07:20:45;;;;;;;;;;;22.00;72.80;;;;;;5194144;28;19925;-60
2021/07/16 07:23:18;;;;;;;;;;;22.00;72.60;;;;;;5189242;28;19936;-60
2021/07/16 07:25:50;;;;;;;;;;;22.00;72.70;;;;;;5189772;28;19928;-61
2021/07/16 07:28:23;;;;;;;;;;;22.10;72.60;;;;;;5194938;28;19978;-61
2021/07/16 07:30:55;;;;;;;;;;;22.10;72.50;;;;;;5186256;28;20284;-61
2021/07/16 07:33:28;;;;;;;;;;;22.10;72.50;;;;;;5188727;28;19925;-61
2021/07/16 07:36:00;;;;;;;;;;;22.10;72.30;;;;;;5190588;28;20373;-61
2021/07/16 07:38:34;;;;;;;;;;;22.20;72.40;;;;;;5190131;28;19935;-59
2021/07/16 07:41:07;;;;;;;;;;;22.20;72.30;;;;;;5186445;28;19925;-60
2021/07/16 07:43:39;;;;;;;;;;;22.20;72.30;;;;;;5192700;28;19924;-61
2021/07/16 07:46:13;;;;;;;;;;;22.20;72.20;;;;;;5177475;28;20039;-60
2021/07/16 07:48:46;;;;;;;;;;;22.30;72.20;;;;;;5192064;28;19925;-60
2021/07/16 07:51:18;;;;;;;;;;;22.30;72.20;;;;;;5190238;28;19925;-60
2021/07/16 07:53:50;;;;;;;;;;;22.20;72.10;;;;;;5196513;28;19924;-60
2021/07/16 07:56:33;;;;;;;;;;;22.20;72.20;;;;;;5190759;28;21011;-62
2021/07/16 07:59:07;;;;;;;;;;;22.20;72.40;;;;;;5190186;28;19924;-60
2021/07/16 08:01:39;;;;;;;;;;;22.20;72.50;;;;;;5189978;28;19950;-60
2021/07/16 08:04:11;;;;;;;;;;;22.30;72.40;;;;;;5184065;28;20771;-61
2021/07/16 08:06:44;;;;;;;;;;;22.30;72.40;;;;;;5199736;28;19925;-61
2021/07/16 08:09:16;;;;;;;;;;;22.30;72.20;;;;;;5198669;28;19920;-61
2021/07/16 08:11:48;;;;;;;;;;;22.30;72.10;;;;;;5204179;28;19931;-59
2021/07/16 08:14:20;;;;;;;;;;;22.30;72.00;;;;;;5200649;28;19933;-60
2021/07/16 08:16:52;;;;;;;;;;;22.30;72.20;;;;;;5184691;28;19932;-60
2021/07/16 08:19:26;;;;;;;;;;;22.30;72.00;;;;;;5179844;28;20426;-60
2021/07/16 08:21:58;;;;;;;;;;;22.40;72.00;;;;;;5187703;28;21311;-61
2021/07/16 08:24:30;;;;;;;;;;;22.40;72.00;;;;;;5178439;28;19929;-61
2021/07/16 08:27:03;;;;;;;;;;;22.40;71.90;;;;;;5178914;28;19936;-61
2021/07/16 08:29:35;;;;;;;;;;;22.40;72.00;;;;;;5177755;28;19933;-62
2021/07/16 08:32:08;;;;;;;;;;;22.40;72.20;;;;;;5175848;28;20649;-61
2021/07/16 08:34:40;;;;;;;;;;;22.40;72.20;;;;;;5167748;28;19956;-61
2021/07/16 08:37:12;;;;;;;;;;;22.40;72.20;;;;;;5174158;28;19928;-60
2021/07/16 08:39:44;;;;;;;;;;;22.40;72.10;;;;;;5183986;28;19936;-61
2021/07/16 08:42:21;;;;;;;;;;;22.50;72.10;;;;;;4628565;28;10000851;-60
2021/07/16 08:44:53;;;;;;;;;;;22.50;72.00;;;;;;5201018;28;19929;-60
2021/07/16 08:47:25;;;;;;;;;;;22.50;72.00;;;;;;5180717;28;19940;-61
2021/07/16 08:49:57;;;;;;;;;;;22.50;71.90;;;;;;5176584;28;19932;-60
2021/07/16 08:52:30;;;;;;;;;;;22.50;71.90;;;;;;5161745;28;19925;-60
2021/07/16 08:55:02;;;;;;;;;;;22.50;71.80;;;;;;5182726;28;19925;-62
2021/07/16 08:57:35;;;;;;;;;;;22.60;72.50;;;;;;5177314;28;19932;-61
2021/07/16 09:00:10;;;;;;;;;;;22.60;71.90;;;;;;5184629;28;20296;-60
2021/07/16 09:02:50;;;;;;;;;;;22.60;71.80;;;;;;5179493;28;19924;-62
2021/07/16 09:05:30;;;;;;;;;;;22.60;71.80;;;;;;5182459;28;19950;-61
2021/07/16 09:08:03;;;;;;;;;;;22.60;71.80;;;;;;5193045;28;20013;-60
2021/07/16 09:10:35;;;;;;;;;;;22.60;71.80;;;;;;5181612;28;19947;-61
2021/07/16 09:13:09;;;;;;;;;;;22.60;71.80;;;;;;5178692;28;19925;-60
2021/07/16 09:15:49;;;;;;;;;;;22.60;71.80;;;;;;5175521;28;19928;-60
2021/07/16 09:18:25;;;;;;;;;;;22.60;71.80;;;;;;5163242;28;19924;-60
2021/07/16 09:21:01;;;;;;;;;;;22.60;71.80;;;;;;5160972;28;19939;-62
2021/07/16 09:23:35;;;;;;;;;;;22.70;71.80;;;;;;5189402;28;19928;-60
2021/07/16 09:26:10;;;;;;;;;;;22.70;71.80;;;;;;5187034;28;19924;-60
2021/07/16 09:28:44;;;;;;;;;;;22.70;71.80;;;;;;5193152;28;19928;-60
2021/07/16 09:31:19;;;;;;;;;;;22.70;71.70;;;;;;5175265;28;19936;-60
2021/07/16 09:33:53;;;;;;;;;;;22.80;71.90;;;;;;5194131;28;19929;-59
2021/07/16 09:36:27;;;;;;;;;;;22.80;72.00;;;;;;5187858;28;19923;-61
2021/07/16 09:39:09;;;;;;;;;;;22.80;71.90;;;;;;5189962;28;20096;-60
2021/07/16 09:41:46;;;;;;;;;;;22.80;71.80;;;;;;5194506;28;19928;-61
2021/07/16 09:44:28;;;;;;;;;;;22.80;71.60;;;;;;5191451;28;20384;-60
2021/07/16 09:47:09;;;;;;;;;;;22.80;71.60;;;;;;5185631;28;20753;-61
2021/07/16 09:49:43;;;;;;;;;;;22.80;71.50;;;;;;5185412;28;19936;-60
2021/07/16 09:52:16;;;;;;;;;;;22.90;71.50;;;;;;5186091;28;19924;-61
2021/07/16 09:55:10;;;;;;;;;;;22.90;71.50;;;;;;5191833;28;20292;-60
2021/07/16 09:57:43;;;;;;;;;;;22.90;72.10;;;;;;5188654;28;19928;-61
2021/07/16 10:00:17;;;;;;;;;;;22.90;71.50;;;;;;5188521;28;19952;-60
2021/07/16 10:02:50;;;;;;;;;;;22.90;71.50;;;;;;5196314;28;20484;-59
2021/07/16 10:05:23;;;;;;;;;;;22.90;71.40;;;;;;5203350;28;19925;-60
2021/07/16 10:07:55;;;;;;;;;;;22.90;71.40;;;;;;5173997;28;20389;-61
2021/07/16 10:10:28;;;;;;;;;;;22.90;71.40;;;;;;5195564;28;19929;-60
2021/07/16 10:13:00;;;;;;;;;;;22.90;71.30;;;;;;5189452;28;20010;-60
2021/07/16 10:15:32;;;;;;;;;;;22.90;71.30;;;;;;5186480;28;20401;-61
2021/07/16 10:18:08;;;;;;;;;;;22.90;71.30;;;;;;5176898;28;19929;-61
2021/07/16 10:20:42;;;;;;;;;;;22.90;71.30;;;;;;5192987;28;19932;-59
2021/07/16 10:23:15;;;;;;;;;;;22.90;71.90;;;;;;5196649;28;19932;-60
2021/07/16 10:25:48;;;;;;;;;;;22.90;71.30;;;;;;5181478;28;20843;-60
2021/07/16 10:28:29;;;;;;;;;;;22.90;71.30;;;;;;5173687;28;20554;-60
2021/07/16 10:31:02;;;;;;;;;;;23.00;71.20;;;;;;5191614;28;19929;-59
2021/07/16 10:33:35;;;;;;;;;;;22.90;71.20;;;;;;5196496;28;20305;-61
2021/07/16 10:36:11;;;;;;;;;;;23.00;71.10;;;;;;5194979;28;19928;-60
2021/07/16 10:38:49;;;;;;;;;;;23.00;71.10;;;;;;5192406;28;20397;-59
2021/07/16 10:41:31;;;;;;;;;;;23.00;71.00;;;;;;5188050;28;19929;-58
2021/07/16 10:44:04;;;;;;;;;;;23.00;71.10;;;;;;5190694;28;19929;-60
2021/07/16 10:46:37;;;;;;;;;;;23.00;71.00;;;;;;5187317;28;19928;-60
2021/07/16 10:49:12;;;;;;;;;;;23.00;71.00;;;;;;5180496;28;19932;-60
2021/07/16 10:51:45;;;;;;;;;;;23.00;71.00;;;;;;5189278;28;20152;-61
2021/07/16 10:54:17;;;;;;;;;;;23.00;70.90;;;;;;5190752;28;19928;-59
2021/07/16 10:56:49;;;;;;;;;;;23.00;70.60;;;;;;5151995;28;20308;-60
2021/07/16 10:59:43;;;;;;;;;;;23.00;70.50;;;;;;5158174;28;19928;-62
2021/07/16 11:02:34;;;;;;;;;;;23.00;70.00;;;;;;5156147;28;19932;-66
2021/07/16 11:05:26;;;;;;;;;;;23.00;70.00;;;;;;5188716;28;19951;-65
2021/07/16 11:08:05;;;;;;;;;;;23.10;70.00;;;;;;5158857;28;19935;-64
2021/07/16 11:10:47;;;;;;;;;;;23.10;69.90;;;;;;5136424;28;19936;-64
2021/07/16 11:13:38;;;;;;;;;;;23.20;69.80;;;;;;5144210;28;19925;-65
2021/07/16 11:16:18;;;;;;;;;;;23.30;69.70;;;;;;5148658;28;20211;-64
2021/07/16 11:18:52;;;;;;;;;;;23.30;69.50;;;;;;5144798;28;19932;-63
2021/07/16 11:21:40;;;;;;;;;;;23.30;69.60;;;;;;5151629;28;19924;-65
2021/07/16 11:24:15;;;;;;;;;;;23.40;69.70;;;;;;5150386;28;19951;-64
2021/07/16 11:26:51;;;;;;;;;;;23.40;69.80;;;;;;5179653;28;19928;-65
2021/07/16 11:29:31;;;;;;;;;;;23.40;69.80;;;;;;5154796;28;19936;-65
2021/07/16 11:32:03;;;;;;;;;;;23.50;69.90;;;;;;5156194;28;20521;-65
2021/07/16 11:34:36;;;;;;;;;;;23.50;69.80;;;;;;5161873;28;19928;-65
2021/07/16 11:37:09;;;;;;;;;;;23.60;69.90;;;;;;5159496;28;19951;-64
2021/07/16 11:39:41;;;;;;;;;;;23.60;69.90;;;;;;5170441;28;20319;-65
2021/07/16 11:42:14;;;;;;;;;;;23.60;69.90;;;;;;5149880;28;19928;-65
2021/07/16 11:44:47;;;;;;;;;;;23.60;69.80;;;;;;5144221;28;19935;-65
2021/07/16 11:47:21;;;;;;;;;;;23.70;69.90;;;;;;5155251;28;19928;-64
2021/07/16 11:49:55;;;;;;;;;;;23.60;69.70;;;;;;5160399;28;20047;-64
2021/07/16 11:52:49;;;;;;;;;;;23.70;70.20;;;;;;5157764;28;19925;-64
2021/07/16 11:55:29;;;;;;;;;;;23.70;69.90;;;;;;5155875;28;19924;-64
2021/07/16 11:58:03;;;;;;;;;;;23.70;69.80;;;;;;5173281;28;19930;-63
2021/07/16 12:00:37;;;;;;;;;;;23.80;69.70;;;;;;5159712;28;19929;-64
2021/07/16 12:03:14;;;;;;;;;;;23.80;69.70;;;;;;5150400;28;21013;-63
2021/07/16 12:05:51;;;;;;;;;;;23.80;69.60;;;;;;5160020;28;19951;-63
2021/07/16 12:08:25;;;;;;;;;;;23.90;69.50;;;;;;5141369;28;19999;-64
2021/07/16 12:11:05;;;;;;;;;;;23.90;69.30;;;;;;5177457;28;20186;-63
2021/07/16 12:13:40;;;;;;;;;;;24.00;69.30;;;;;;5183298;28;20550;-63
2021/07/16 12:16:13;;;;;;;;;;;23.90;69.30;;;;;;5163875;28;20324;-64
2021/07/16 12:18:46;;;;;;;;;;;24.00;69.20;;;;;;5175140;28;19925;-63
2021/07/16 12:21:21;;;;;;;;;;;24.00;69.20;;;;;;5175937;28;19925;-65
2021/07/16 12:23:53;;;;;;;;;;;24.00;69.10;;;;;;5178561;28;19932;-64
2021/07/16 12:26:25;;;;;;;;;;;24.10;69.10;;;;;;4461443;28;10019970;-64
2021/07/16 12:29:05;;;;;;;;;;;24.10;69.00;;;;;;4814556;28;9999877;-63
2021/07/16 12:31:38;;;;;;;;;;;24.10;69.00;;;;;;5176595;28;19924;-64
2021/07/16 12:34:20;;;;;;;;;;;24.20;69.00;;;;;;5157749;28;19925;-62
2021/07/16 12:37:06;;;;;;;;;;;24.20;69.00;;;;;;5157176;28;19932;-64
2021/07/16 12:39:39;;;;;;;;;;;24.20;69.00;;;;;;5167089;28;19924;-64
2021/07/16 12:42:18;;;;;;;;;;;24.20;68.90;;;;;;5162729;28;20219;-64
2021/07/16 12:45:01;;;;;;;;;;;24.20;68.90;;;;;;5148473;28;19925;-64
2021/07/16 12:47:34;;;;;;;;;;;24.20;68.90;;;;;;5159198;28;19929;-63
2021/07/16 12:50:07;;;;;;;;;;;24.20;68.80;;;;;;5142273;28;19959;-64
2021/07/16 12:52:40;;;;;;;;;;;24.30;68.80;;;;;;5162686;28;19925;-63
2021/07/16 12:55:19;;;;;;;;;;;24.30;68.90;;;;;;5157168;28;19925;-63
2021/07/16 12:58:02;;;;;;;;;;;24.30;69.00;;;;;;5147882;28;19925;-63
2021/07/16 13:00:35;;;;;;;;;;;24.30;68.90;;;;;;5171528;28;19943;-63
2021/07/16 13:03:15;;;;;;;;;;;24.30;68.90;;;;;;5163262;28;20552;-64
2021/07/16 13:05:49;;;;;;;;;;;24.30;68.90;;;;;;5163903;28;19935;-64
2021/07/16 13:08:25;;;;;;;;;;;24.30;68.90;;;;;;5170122;28;20434;-65
2021/07/16 13:11:01;;;;;;;;;;;24.30;68.80;;;;;;5148580;28;20555;-63
2021/07/16 13:13:34;;;;;;;;;;;24.30;68.90;;;;;;5164545;28;19925;-63
2021/07/16 13:16:18;;;;;;;;;;;24.30;68.90;;;;;;5164279;28;19952;-63
2021/07/16 13:18:54;;;;;;;;;;;24.30;68.90;;;;;;5166471;28;20408;-64
2021/07/16 13:21:26;;;;;;;;;;;24.40;68.80;;;;;;5151488;28;20464;-63
2021/07/16 13:23:59;;;;;;;;;;;24.40;68.70;;;;;;5168661;28;19929;-64
2021/07/16 13:26:33;;;;;;;;;;;24.40;68.50;;;;;;5164240;28;19931;-64
2021/07/16 13:29:07;;;;;;;;;;;24.40;68.20;;;;;;5114760;28;19928;-64
2021/07/16 13:31:40;;;;;;;;;;;24.40;67.90;;;;;;5144870;28;19925;-63
2021/07/16 13:34:12;;;;;;;;;;;24.40;68.10;;;;;;5166666;28;19932;-62
2021/07/16 13:36:44;;;;;;;;;;;24.40;68.00;;;;;;5142773;28;19933;-57
2021/07/16 13:39:17;;;;;;;;;;;24.40;67.90;;;;;;5139016;28;19928;-58
2021/07/16 13:41:49;;;;;;;;;;;24.40;67.90;;;;;;5135244;28;19932;-56
2021/07/16 13:44:21;;;;;;;;;;;24.40;68.30;;;;;;5150953;28;19925;-57
2021/07/16 13:46:54;;;;;;;;;;;24.40;67.90;;;;;;5171527;28;19925;-58
2021/07/16 13:49:26;;;;;;;;;;;24.40;67.90;;;;;;5165466;28;20205;-58
2021/07/16 13:51:59;;;;;;;;;;;24.40;67.80;;;;;;5153519;28;20419;-57
2021/07/16 13:54:32;;;;;;;;;;;24.40;67.60;;;;;;5154634;28;19935;-54
2021/07/16 13:57:04;;;;;;;;;;;24.40;67.60;;;;;;5160356;28;20247;-58
2021/07/16 13:59:36;;;;;;;;;;;24.40;67.60;;;;;;5140880;28;21175;-57
2021/07/16 14:02:09;;;;;;;;;;;24.40;67.50;;;;;;5152815;28;19936;-55
2021/07/16 14:04:41;;;;;;;;;;;24.50;67.50;;;;;;5152997;28;20048;-59
2021/07/16 14:07:14;;;;;;;;;;;24.40;67.40;;;;;;5152178;28;20492;-57
2021/07/16 14:09:46;;;;;;;;;;;24.40;67.40;;;;;;5173438;28;19936;-55
2021/07/16 14:12:19;;;;;;;;;;;24.40;67.50;;;;;;5163869;28;19929;-58
2021/07/16 14:14:55;;;;;;;;;;;24.40;67.60;;;;;;5148308;28;19967;-58
2021/07/16 14:17:27;;;;;;;;;;;24.40;67.70;;;;;;5162106;28;20321;-57
2021/07/16 14:20:00;;;;;;;;;;;24.40;67.70;;;;;;5170975;28;20384;-58
2021/07/16 14:22:34;;;;;;;;;;;24.40;67.80;;;;;;5142161;28;20562;-59
2021/07/16 14:25:08;;;;;;;;;;;24.40;67.80;;;;;;5169586;28;19928;-52
2021/07/16 14:27:41;;;;;;;;;;;24.40;67.80;;;;;;5162469;28;20325;-59
2021/07/16 14:30:15;;;;;;;;;;;24.40;67.70;;;;;;5171771;28;19928;-51
2021/07/16 14:32:48;;;;;;;;;;;24.40;67.60;;;;;;5163505;28;21551;-57
2021/07/16 14:35:23;;;;;;;;;;;24.50;67.60;;;;;;5182066;28;20412;-57
2021/07/16 14:37:56;;;;;;;;;;;24.50;67.70;;;;;;5187361;28;19936;-54
2021/07/16 14:40:28;;;;;;;;;;;24.40;67.70;;;;;;5159015;28;19928;-50
2021/07/16 14:43:00;;;;;;;;;;;24.40;67.80;;;;;;5168409;28;20328;-53
2021/07/16 14:45:33;;;;;;;;;;;24.30;67.90;;;;;;5150345;28;19928;-56
2021/07/16 14:48:05;;;;;;;;;;;24.30;68.10;;;;;;5175458;28;19929;-49
2021/07/16 14:50:38;;;;;;;;;;;24.20;68.20;;;;;;5171568;28;20977;-56
2021/07/16 14:53:10;;;;;;;;;;;24.20;68.50;;;;;;5172969;28;21107;-51